sensor_id;sensor_type;location;lat;lon;timestamp;pressure;altitude;pressure_sealevel;temperature;humidity
75668;BME280;64266;48.798;44.756;2023-02-28T00:00:26;101753.66;;;7.55;62.33
75668;BME280;64266;48.798;44.756;2023-02-28T00:05:33;101706.59;;;7.36;63.29
75668;BME280;64266;48.798;44.756;2023-02-28T00:10:46;101806.03;;;7.75;63.59
75668;BME280;64266;48.798;44.756;2023-02-28T00:16:07;101724.19;;;7.05;64.06
75668;BME280;64266;48.798;44.756;2023-02-28T00:21:20;101770.16;;;7.19;63.16
75668;BME280;64266;48.798;44.756;2023-02-28T00:26:23;101640.06;;;6.40;64.32
75668;BME280;64266;48.798;44.756;2023-02-28T00:31:29;101689.59;;;6.61;64.38
75668;BME280;64266;48.798;44.756;2023-02-28T00:36:35;101824.19;;;7.31;64.88
75668;BME280;64266;48.798;44.756;2023-02-28T00:41:39;101799.88;;;6.96;64.21
75668;BME280;64266;48.798;44.756;2023-02-28T00:46:45;101729.47;;;6.34;66.00
75668;BME280;64266;48.798;44.756;2023-02-28T00:51:52;101648.66;;;5.78;65.81
75668;BME280;64266;48.798;44.756;2023-02-28T00:57:06;101643.53;;;5.52;65.50
75668;BME280;64266;48.798;44.756;2023-02-28T01:02:16;101723.84;;;5.88;65.80
75668;BME280;64266;48.798;44.756;2023-02-28T01:07:21;101831.72;;;6.30;66.70
75668;BME280;64266;48.798;44.756;2023-02-28T01:12:25;101661.25;;;5.26;66.56
75668;BME280;64266;48.798;44.756;2023-02-28T01:23:03;101863.63;;;6.19;68.04
75668;BME280;64266;48.798;44.756;2023-02-28T01:28:13;101802.59;;;5.66;67.98
75668;BME280;64266;48.798;44.756;2023-02-28T01:33:26;101715.59;;;5.17;68.37
75668;BME280;64266;48.798;44.756;2023-02-28T01:38:55;101860.84;;;5.79;69.02
75668;BME280;64266;48.798;44.756;2023-02-28T01:49:49;101762.78;;;5.19;68.98
75668;BME280;64266;48.798;44.756;2023-02-28T01:54:55;101814.25;;;5.29;68.77
75668;BME280;64266;48.798;44.756;2023-02-28T02:00:15;101793.69;;;5.25;68.70
75668;BME280;64266;48.798;44.756;2023-02-28T02:05:24;101688.75;;;4.64;68.55
75668;BME280;64266;48.798;44.756;2023-02-28T02:10:36;101837.22;;;5.53;69.88
75668;BME280;64266;48.798;44.756;2023-02-28T02:15:53;101763.31;;;4.97;69.44
75668;BME280;64266;48.798;44.756;2023-02-28T02:21:25;101933.03;;;6.02;68.87
75668;BME280;64266;48.798;44.756;2023-02-28T02:26:49;101947.81;;;6.03;68.80
75668;BME280;64266;48.798;44.756;2023-02-28T02:32:10;101952.28;;;6.03;67.65
75668;BME280;64266;48.798;44.756;2023-02-28T02:42:58;101905.84;;;5.93;69.80
75668;BME280;64266;48.798;44.756;2023-02-28T02:48:09;101777.09;;;4.99;68.26
75668;BME280;64266;48.798;44.756;2023-02-28T02:53:18;101862.09;;;5.33;68.96
75668;BME280;64266;48.798;44.756;2023-02-28T02:58:29;101887.84;;;5.47;68.71
75668;BME280;64266;48.798;44.756;2023-02-28T03:03:35;101917.72;;;5.72;68.31
75668;BME280;64266;48.798;44.756;2023-02-28T03:08:43;101967.19;;;5.86;68.88
75668;BME280;64266;48.798;44.756;2023-02-28T03:13:58;101935.84;;;5.75;68.85
75668;BME280;64266;48.798;44.756;2023-02-28T03:25:08;101809.53;;;4.81;67.07
75668;BME280;64266;48.798;44.756;2023-02-28T03:35:54;101856.59;;;5.18;67.89
75668;BME280;64266;48.798;44.756;2023-02-28T03:41:25;101801.22;;;4.86;67.43
75668;BME280;64266;48.798;44.756;2023-02-28T03:46:38;101783.44;;;4.62;66.66
75668;BME280;64266;48.798;44.756;2023-02-28T03:51:56;101800.97;;;4.54;67.28
75668;BME280;64266;48.798;44.756;2023-02-28T03:57:34;101987.78;;;5.73;68.45
75668;BME280;64266;48.798;44.756;2023-02-28T04:02:40;101916.34;;;5.34;68.76
75668;BME280;64266;48.798;44.756;2023-02-28T04:07:48;101796.16;;;4.49;68.54
75668;BME280;64266;48.798;44.756;2023-02-28T04:12:57;101918.63;;;5.29;68.51
75668;BME280;64266;48.798;44.756;2023-02-28T04:18:04;101905.91;;;5.16;69.71
75668;BME280;64266;48.798;44.756;2023-02-28T04:23:07;101904.97;;;5.25;69.30
75668;BME280;64266;48.798;44.756;2023-02-28T04:28:12;101928.03;;;5.31;68.38
75668;BME280;64266;48.798;44.756;2023-02-28T04:33:15;101994.75;;;5.82;68.46
75668;BME280;64266;48.798;44.756;2023-02-28T04:38:22;102017.09;;;5.95;68.98
75668;BME280;64266;48.798;44.756;2023-02-28T04:43:30;101952.28;;;5.51;68.23
75668;BME280;64266;48.798;44.756;2023-02-28T04:48:36;102021.69;;;5.93;68.66
75668;BME280;64266;48.798;44.756;2023-02-28T04:53:55;102055.69;;;6.13;67.90
75668;BME280;64266;48.798;44.756;2023-02-28T04:59:05;101920.38;;;5.46;67.44
75668;BME280;64266;48.798;44.756;2023-02-28T05:04:08;101834.69;;;4.84;68.03
75668;BME280;64266;48.798;44.756;2023-02-28T05:09:12;101852.97;;;4.93;67.68
75668;BME280;64266;48.798;44.756;2023-02-28T05:14:17;101904.34;;;5.31;67.71
75668;BME280;64266;48.798;44.756;2023-02-28T05:19:22;101955.19;;;5.66;67.59
75668;BME280;64266;48.798;44.756;2023-02-28T05:24:25;101948.28;;;5.65;68.54
75668;BME280;64266;48.798;44.756;2023-02-28T05:29:29;101996.78;;;5.88;67.74
75668;BME280;64266;48.798;44.756;2023-02-28T05:34:33;101988.22;;;5.86;68.19
75668;BME280;64266;48.798;44.756;2023-02-28T05:39:36;101933.00;;;5.68;67.47
75668;BME280;64266;48.798;44.756;2023-02-28T05:44:39;101985.38;;;6.05;68.22
75668;BME280;64266;48.798;44.756;2023-02-28T05:49:42;101983.91;;;6.11;67.93
75668;BME280;64266;48.798;44.756;2023-02-28T05:54:46;101960.84;;;6.05;67.25
75668;BME280;64266;48.798;44.756;2023-02-28T05:59:50;101960.63;;;5.90;67.08
75668;BME280;64266;48.798;44.756;2023-02-28T06:04:53;101971.41;;;6.13;67.37
75668;BME280;64266;48.798;44.756;2023-02-28T06:09:57;101958.47;;;6.27;66.66
75668;BME280;64266;48.798;44.756;2023-02-28T06:15:01;101971.34;;;6.46;66.82
75668;BME280;64266;48.798;44.756;2023-02-28T06:20:05;101928.69;;;6.35;65.75
75668;BME280;64266;48.798;44.756;2023-02-28T06:25:09;101933.31;;;6.41;64.65
75668;BME280;64266;48.798;44.756;2023-02-28T06:30:14;101928.69;;;6.43;66.09
75668;BME280;64266;48.798;44.756;2023-02-28T06:35:17;101916.03;;;6.38;66.21
75668;BME280;64266;48.798;44.756;2023-02-28T06:40:20;101933.69;;;6.54;65.59
75668;BME280;64266;48.798;44.756;2023-02-28T06:45:26;101896.94;;;6.36;64.30
75668;BME280;64266;48.798;44.756;2023-02-28T06:51:13;101821.94;;;5.90;65.55
75668;BME280;64266;48.798;44.756;2023-02-28T06:56:18;101801.81;;;5.81;65.17
75668;BME280;64266;48.798;44.756;2023-02-28T07:01:24;101891.63;;;6.28;64.92
75668;BME280;64266;48.798;44.756;2023-02-28T07:06:27;101909.09;;;6.29;64.94
75668;BME280;64266;48.798;44.756;2023-02-28T07:11:30;101924.91;;;6.37;65.19
75668;BME280;64266;48.798;44.756;2023-02-28T07:16:35;101908.09;;;6.30;65.51
75668;BME280;64266;48.798;44.756;2023-02-28T07:21:38;101923.94;;;6.46;65.40
75668;BME280;64266;48.798;44.756;2023-02-28T07:26:50;101842.88;;;6.08;66.12
75668;BME280;64266;48.798;44.756;2023-02-28T07:32:06;101899.91;;;6.58;64.98
75668;BME280;64266;48.798;44.756;2023-02-28T07:37:14;101826.75;;;6.11;64.59
75668;BME280;64266;48.798;44.756;2023-02-28T07:42:19;101781.94;;;5.87;63.97
75668;BME280;64266;48.798;44.756;2023-02-28T07:47:22;101840.09;;;6.26;64.65
75668;BME280;64266;48.798;44.756;2023-02-28T07:52:43;101876.03;;;6.75;64.43
75668;BME280;64266;48.798;44.756;2023-02-28T07:57:45;101897.78;;;6.85;63.13
75668;BME280;64266;48.798;44.756;2023-02-28T08:02:49;101902.38;;;6.99;63.77
75668;BME280;64266;48.798;44.756;2023-02-28T08:07:54;101879.66;;;6.74;63.96
75668;BME280;64266;48.798;44.756;2023-02-28T08:12:57;101780.50;;;6.25;63.78
75668;BME280;64266;48.798;44.756;2023-02-28T08:18:05;101884.13;;;6.82;62.25
75668;BME280;64266;48.798;44.756;2023-02-28T08:23:35;101911.13;;;7.16;62.08
75668;BME280;64266;48.798;44.756;2023-02-28T08:28:38;101909.97;;;7.19;63.05
75668;BME280;64266;48.798;44.756;2023-02-28T08:33:46;101935.66;;;7.33;62.02
75668;BME280;64266;48.798;44.756;2023-02-28T08:38:58;101762.72;;;6.35;62.94
75668;BME280;64266;48.798;44.756;2023-02-28T08:44:10;101784.97;;;6.48;61.36
75668;BME280;64266;48.798;44.756;2023-02-28T08:49:20;101935.00;;;7.39;61.69
75668;BME280;64266;48.798;44.756;2023-02-28T08:54:25;101938.94;;;7.43;61.38
75668;BME280;64266;48.798;44.756;2023-02-28T08:59:33;101930.88;;;7.44;61.58
75668;BME280;64266;48.798;44.756;2023-02-28T09:04:43;101846.22;;;6.83;62.06
75668;BME280;64266;48.798;44.756;2023-02-28T09:09:48;101845.22;;;6.76;62.23
75668;BME280;64266;48.798;44.756;2023-02-28T09:14:58;101912.09;;;6.99;62.60
75668;BME280;64266;48.798;44.756;2023-02-28T09:20:02;101922.00;;;7.05;62.74
75668;BME280;64266;48.798;44.756;2023-02-28T09:25:08;101912.28;;;6.97;61.96
75668;BME280;64266;48.798;44.756;2023-02-28T09:30:20;101862.53;;;6.54;62.40
75668;BME280;64266;48.798;44.756;2023-02-28T09:35:45;101873.75;;;6.64;63.23
75668;BME280;64266;48.798;44.756;2023-02-28T09:40:55;101909.00;;;6.87;62.87
75668;BME280;64266;48.798;44.756;2023-02-28T09:51:30;101883.94;;;6.99;63.01
75668;BME280;64266;48.798;44.756;2023-02-28T09:56:43;101811.81;;;6.52;62.88
75668;BME280;64266;48.798;44.756;2023-02-28T10:07:24;101882.81;;;6.86;63.29
75668;BME280;64266;48.798;44.756;2023-02-28T10:12:51;101670.47;;;5.46;64.31
75668;BME280;64266;48.798;44.756;2023-02-28T10:18:23;101864.66;;;6.50;64.79
75668;BME280;64266;48.798;44.756;2023-02-28T10:24:43;101847.34;;;6.32;65.70
75668;BME280;64266;48.798;44.756;2023-02-28T10:29:33;101791.56;;;5.78;66.01
75668;BME280;64266;48.798;44.756;2023-02-28T10:34:39;101684.78;;;5.02;65.57
75668;BME280;64266;48.798;44.756;2023-02-28T10:39:56;101808.00;;;5.72;66.76
75668;BME280;64266;48.798;44.756;2023-02-28T10:45:35;101727.66;;;5.36;67.16
75668;BME280;64266;48.798;44.756;2023-02-28T10:51:11;101747.72;;;5.29;67.68
75668;BME280;64266;48.798;44.756;2023-02-28T11:03:38;101777.00;;;5.42;69.08
75668;BME280;64266;48.798;44.756;2023-02-28T11:08:54;101817.22;;;5.68;69.63
75668;BME280;64266;48.798;44.756;2023-02-28T11:14:06;101657.66;;;4.93;69.11
75668;BME280;64266;48.798;44.756;2023-02-28T11:19:20;101698.41;;;5.31;69.29
75668;BME280;64266;48.798;44.756;2023-02-28T11:24:33;101794.63;;;6.16;68.55
75668;BME280;64266;48.798;44.756;2023-02-28T11:29:46;101784.59;;;6.19;68.03
75668;BME280;64266;48.798;44.756;2023-02-28T11:51:35;101769.94;;;6.73;66.19
75668;BME280;64266;48.798;44.756;2023-02-28T12:02:49;101791.00;;;6.97;64.19
75668;BME280;64266;48.798;44.756;2023-02-28T12:13:25;101764.13;;;6.94;63.50
75668;BME280;64266;48.798;44.756;2023-02-28T12:19:16;101787.16;;;7.08;62.60
75668;BME280;64266;48.798;44.756;2023-02-28T12:25:01;101778.41;;;7.16;63.55
75668;BME280;64266;48.798;44.756;2023-02-28T12:43:27;101668.63;;;6.76;61.67
75668;BME280;64266;48.798;44.756;2023-02-28T12:49:06;101726.28;;;7.18;62.56
75668;BME280;64266;48.798;44.756;2023-02-28T12:54:25;101752.00;;;7.24;61.16
75668;BME280;64266;48.798;44.756;2023-02-28T12:59:41;101656.50;;;6.50;61.66
75668;BME280;64266;48.798;44.756;2023-02-28T13:10:49;101722.25;;;6.99;61.76
75668;BME280;64266;48.798;44.756;2023-02-28T13:16:09;101611.78;;;6.26;61.16
75668;BME280;64266;48.798;44.756;2023-02-28T13:21:30;101666.22;;;6.58;61.08
75668;BME280;64266;48.798;44.756;2023-02-28T13:42:35;101708.13;;;6.92;61.85
75668;BME280;64266;48.798;44.756;2023-02-28T14:03:52;101700.44;;;6.66;61.97
75668;BME280;64266;48.798;44.756;2023-02-28T14:09:33;101643.88;;;6.22;62.53
75668;BME280;64266;48.798;44.756;2023-02-28T14:19:50;101667.91;;;6.35;61.19
75668;BME280;64266;48.798;44.756;2023-02-28T14:25:18;101687.63;;;6.55;61.18
75668;BME280;64266;48.798;44.756;2023-02-28T14:30:48;101679.91;;;6.45;61.58
75668;BME280;64266;48.798;44.756;2023-02-28T14:41:06;101674.31;;;6.48;61.42
75668;BME280;64266;48.798;44.756;2023-02-28T14:46:15;101681.19;;;6.58;60.49
75668;BME280;64266;48.798;44.756;2023-02-28T14:51:21;101680.25;;;6.26;60.61
75668;BME280;64266;48.798;44.756;2023-02-28T14:56:34;101670.53;;;6.35;61.09
75668;BME280;64266;48.798;44.756;2023-02-28T15:01:36;101676.97;;;6.24;61.44
75668;BME280;64266;48.798;44.756;2023-02-28T15:06:39;101668.06;;;6.09;62.13
75668;BME280;64266;48.798;44.756;2023-02-28T15:11:46;101673.03;;;5.96;61.40
75668;BME280;64266;48.798;44.756;2023-02-28T15:16:55;101670.88;;;5.83;62.27
75668;BME280;64266;48.798;44.756;2023-02-28T15:22:07;101687.34;;;5.93;62.35
75668;BME280;64266;48.798;44.756;2023-02-28T15:27:31;101697.88;;;5.85;62.70
75668;BME280;64266;48.798;44.756;2023-02-28T15:32:37;101670.34;;;5.64;62.44
75668;BME280;64266;48.798;44.756;2023-02-28T15:37:51;101689.94;;;5.77;61.75
75668;BME280;64266;48.798;44.756;2023-02-28T15:43:15;101554.66;;;4.81;62.04
75668;BME280;64266;48.798;44.756;2023-02-28T15:53:33;101689.94;;;5.77;61.73
75668;BME280;64266;48.798;44.756;2023-02-28T15:58:36;101677.91;;;5.67;61.35
75668;BME280;64266;48.798;44.756;2023-02-28T16:03:48;101630.03;;;5.39;62.27
75668;BME280;64266;48.798;44.756;2023-02-28T16:08:51;101686.31;;;5.70;61.76
75668;BME280;64266;48.798;44.756;2023-02-28T16:13:55;101678.56;;;5.61;61.28
75668;BME280;64266;48.798;44.756;2023-02-28T16:18:57;101661.94;;;5.44;62.02
75668;BME280;64266;48.798;44.756;2023-02-28T16:24:03;101672.31;;;5.54;62.34
75668;BME280;64266;48.798;44.756;2023-02-28T16:29:09;101639.72;;;5.22;61.41
75668;BME280;64266;48.798;44.756;2023-02-28T16:34:17;101650.38;;;5.21;62.32
75668;BME280;64266;48.798;44.756;2023-02-28T16:39:20;101656.06;;;5.00;62.58
75668;BME280;64266;48.798;44.756;2023-02-28T16:44:32;101654.28;;;5.09;62.74
75668;BME280;64266;48.798;44.756;2023-02-28T16:49:38;101632.72;;;4.97;62.29
75668;BME280;64266;48.798;44.756;2023-02-28T16:54:44;101657.66;;;4.93;63.40
75668;BME280;64266;48.798;44.756;2023-02-28T16:59:47;101668.19;;;4.93;62.58
75668;BME280;64266;48.798;44.756;2023-02-28T17:04:50;101660.59;;;4.82;61.80
75668;BME280;64266;48.798;44.756;2023-02-28T17:09:52;101659.69;;;4.65;60.17
75668;BME280;64266;48.798;44.756;2023-02-28T17:14:55;101651.78;;;4.65;60.34
75668;BME280;64266;48.798;44.756;2023-02-28T17:19:58;101637.34;;;4.61;60.20
75668;BME280;64266;48.798;44.756;2023-02-28T17:25:00;101636.34;;;4.62;60.06
75668;BME280;64266;48.798;44.756;2023-02-28T17:35:16;101599.75;;;4.27;59.83
75668;BME280;64266;48.798;44.756;2023-02-28T17:40:21;101620.34;;;4.48;59.45
75668;BME280;64266;48.798;44.756;2023-02-28T17:45:25;101583.94;;;4.19;59.60
75668;BME280;64266;48.798;44.756;2023-02-28T17:50:29;101608.69;;;4.42;60.46
75668;BME280;64266;48.798;44.756;2023-02-28T17:55:32;101624.38;;;4.34;59.09
75668;BME280;64266;48.798;44.756;2023-02-28T18:00:36;101624.03;;;4.29;59.15
75668;BME280;64266;48.798;44.756;2023-02-28T18:05:40;101599.84;;;4.17;60.40
75668;BME280;64266;48.798;44.756;2023-02-28T18:10:42;101611.72;;;4.29;58.85
75668;BME280;64266;48.798;44.756;2023-02-28T18:15:45;101616.00;;;4.30;58.97
75668;BME280;64266;48.798;44.756;2023-02-28T18:20:49;101600.91;;;4.07;58.51
75668;BME280;64266;48.798;44.756;2023-02-28T18:25:52;101588.41;;;4.01;58.84
75668;BME280;64266;48.798;44.756;2023-02-28T18:30:55;101583.94;;;3.93;58.41
75668;BME280;64266;48.798;44.756;2023-02-28T18:35:58;101591.31;;;3.90;58.88
75668;BME280;64266;48.798;44.756;2023-02-28T18:41:03;101586.19;;;3.88;57.75
75668;BME280;64266;48.798;44.756;2023-02-28T18:46:12;101568.88;;;3.52;57.64
75668;BME280;64266;48.798;44.756;2023-02-28T18:51:17;101590.69;;;3.52;57.72
75668;BME280;64266;48.798;44.756;2023-02-28T18:56:22;101588.66;;;3.46;57.50
75668;BME280;64266;48.798;44.756;2023-02-28T19:01:27;101590.00;;;3.50;57.88
75668;BME280;64266;48.798;44.756;2023-02-28T19:06:33;101579.66;;;3.49;57.98
75668;BME280;64266;48.798;44.756;2023-02-28T19:11:35;101576.66;;;3.61;57.66
75668;BME280;64266;48.798;44.756;2023-02-28T19:16:38;101563.41;;;3.45;57.75
75668;BME280;64266;48.798;44.756;2023-02-28T19:21:41;101557.72;;;3.50;57.31
75668;BME280;64266;48.798;44.756;2023-02-28T19:26:44;101566.03;;;3.63;57.54
75668;BME280;64266;48.798;44.756;2023-02-28T19:31:46;101523.94;;;3.47;57.98
75668;BME280;64266;48.798;44.756;2023-02-28T19:36:49;101515.41;;;3.27;56.74
75668;BME280;64266;48.798;44.756;2023-02-28T19:41:52;101561.16;;;3.50;57.56
75668;BME280;64266;48.798;44.756;2023-02-28T19:46:55;101522.38;;;3.18;57.17
75668;BME280;64266;48.798;44.756;2023-02-28T19:51:58;101554.28;;;3.32;58.08
75668;BME280;64266;48.798;44.756;2023-02-28T19:57:01;101548.59;;;3.36;58.02
75668;BME280;64266;48.798;44.756;2023-02-28T20:02:04;101499.94;;;3.16;58.24
75668;BME280;64266;48.798;44.756;2023-02-28T20:07:07;101507.16;;;3.40;57.65
75668;BME280;64266;48.798;44.756;2023-02-28T20:12:10;101514.72;;;3.43;57.61
75668;BME280;64266;48.798;44.756;2023-02-28T20:17:25;101540.19;;;3.50;58.03
75668;BME280;64266;48.798;44.756;2023-02-28T20:22:27;101546.66;;;3.64;56.97
75668;BME280;64266;48.798;44.756;2023-02-28T20:27:30;101523.53;;;3.59;59.00
75668;BME280;64266;48.798;44.756;2023-02-28T20:32:35;101497.25;;;3.51;57.84
75668;BME280;64266;48.798;44.756;2023-02-28T20:37:40;101539.44;;;3.83;58.30
75668;BME280;64266;48.798;44.756;2023-02-28T20:42:43;101517.31;;;3.60;57.72
75668;BME280;64266;48.798;44.756;2023-02-28T20:47:45;101526.41;;;3.48;56.07
75668;BME280;64266;48.798;44.756;2023-02-28T20:52:48;101535.56;;;3.44;56.85
75668;BME280;64266;48.798;44.756;2023-02-28T20:57:51;101517.72;;;3.30;56.74
75668;BME280;64266;48.798;44.756;2023-02-28T21:02:55;101524.78;;;3.29;56.37
75668;BME280;64266;48.798;44.756;2023-02-28T21:08:00;101488.53;;;3.25;56.42
75668;BME280;64266;48.798;44.756;2023-02-28T21:13:03;101506.00;;;3.16;56.51
75668;BME280;64266;48.798;44.756;2023-02-28T21:18:06;101500.56;;;2.92;56.30
75668;BME280;64266;48.798;44.756;2023-02-28T21:23:09;101471.28;;;2.61;56.40
75668;BME280;64266;48.798;44.756;2023-02-28T21:28:12;101479.31;;;2.50;57.02
75668;BME280;64266;48.798;44.756;2023-02-28T21:33:15;101486.84;;;2.36;56.50
75668;BME280;64266;48.798;44.756;2023-02-28T21:38:19;101517.09;;;2.48;56.70
75668;BME280;64266;48.798;44.756;2023-02-28T21:43:21;101522.44;;;2.46;57.32
75668;BME280;64266;48.798;44.756;2023-02-28T21:48:23;101520.13;;;2.43;57.52
75668;BME280;64266;48.798;44.756;2023-02-28T21:53:29;101520.63;;;2.56;57.78
75668;BME280;64266;48.798;44.756;2023-02-28T21:58:33;101511.22;;;2.36;57.84
75668;BME280;64266;48.798;44.756;2023-02-28T22:03:37;101513.63;;;2.47;57.23
75668;BME280;64266;48.798;44.756;2023-02-28T22:08:41;101491.25;;;2.35;58.51
75668;BME280;64266;48.798;44.756;2023-02-28T22:13:45;101507.69;;;2.55;57.95
75668;BME280;64266;48.798;44.756;2023-02-28T22:18:50;101507.16;;;2.51;58.14
75668;BME280;64266;48.798;44.756;2023-02-28T22:23:52;101482.69;;;2.43;57.91
75668;BME280;64266;48.798;44.756;2023-02-28T22:28:55;101475.72;;;2.34;57.98
75668;BME280;64266;48.798;44.756;2023-02-28T22:34:01;101475.50;;;2.45;58.95
75668;BME280;64266;48.798;44.756;2023-02-28T22:39:04;101472.31;;;2.24;58.87
75668;BME280;64266;48.798;44.756;2023-02-28T22:44:07;101452.72;;;2.00;59.28
75668;BME280;64266;48.798;44.756;2023-02-28T22:49:11;101450.69;;;1.94;58.58
75668;BME280;64266;48.798;44.756;2023-02-28T22:54:15;101481.47;;;2.10;59.60
75668;BME280;64266;48.798;44.756;2023-02-28T22:59:17;101466.53;;;1.93;59.80
75668;BME280;64266;48.798;44.756;2023-02-28T23:04:21;101446.47;;;1.84;59.32
75668;BME280;64266;48.798;44.756;2023-02-28T23:09:27;101465.59;;;1.94;59.97
75668;BME280;64266;48.798;44.756;2023-02-28T23:14:30;101448.06;;;1.94;59.76
75668;BME280;64266;48.798;44.756;2023-02-28T23:19:35;101439.19;;;1.87;60.19
75668;BME280;64266;48.798;44.756;2023-02-28T23:24:38;101394.97;;;1.57;59.70
75668;BME280;64266;48.798;44.756;2023-02-28T23:29:40;101410.38;;;1.60;60.11
75668;BME280;64266;48.798;44.756;2023-02-28T23:34:43;101434.59;;;1.62;60.01
75668;BME280;64266;48.798;44.756;2023-02-28T23:39:46;101451.19;;;1.71;60.04
75668;BME280;64266;48.798;44.756;2023-02-28T23:44:50;101405.78;;;1.35;60.38
75668;BME280;64266;48.798;44.756;2023-02-28T23:49:53;101414.97;;;1.39;61.23
75668;BME280;64266;48.798;44.756;2023-02-28T23:54:56;101432.84;;;1.43;60.41
